Terminal Aerodrome Forecast
Issued by NWS

Home | Current Version | Previous Version | Text Only | Print | Product List | Glossary On
Versions: 1 2 3 4 5 6 7 8 9 10 11 12 13
000
FTUS41 KPHI 221133
TAFMIV
TAF
KMIV 221133Z 2212/2312 22007KT P6SM FEW035 BKN250
      TEMPO 2212/2214 6SM BR
     FM221600 21010KT P6SM SCT050 BKN250
     FM222200 20006KT P6SM SCT070
     FM230300 24005KT 6SM BR SCT070 BKN250=

USA.gov is the U.S. government's official web portal to all federal, state and local government web resources and services.